Time;durP1;ratioP1;P1;durP2;ratioP2;P2;SDS_P1;SDS_P2;PMS_P1;PMS_P2;Temp;Humidity;BMP_temperature;BMP_pressure;BME280_temperature;BME280_humidity;BME280_pressure;Samples;Min_cycle;Max_cycle;Signal;HPM_P1;HPM_P2
2024/01/16 00:01:47;;;;;;;6.05;1.20;;;;;;;;;;5049349;28;20116;-78
2024/01/16 00:04:13;;;;;;;10.95;1.42;;;;;;;;;;5049153;28;20531;-78
2024/01/16 00:06:43;;;;;;;10.75;1.60;;;;;;;;;;5049264;28;20343;-78
2024/01/16 00:09:10;;;;;;;12.98;1.50;;;;;;;;;;5047176;28;20036;-78
2024/01/16 00:11:42;;;;;;;11.90;1.63;;;;;;;;;;5047829;28;20017;-78
2024/01/16 00:14:08;;;;;;;9.75;1.40;;;;;;;;;;5047917;28;20145;-78
2024/01/16 00:16:34;;;;;;;11.30;1.60;;;;;;;;;;5049248;28;20086;-78
2024/01/16 00:19:00;;;;;;;8.65;1.45;;;;;;;;;;5047780;28;20021;-79
2024/01/16 00:21:26;;;;;;;11.18;1.42;;;;;;;;;;5049023;28;20017;-78
2024/01/16 00:23:52;;;;;;;11.82;1.60;;;;;;;;;;5047736;28;20417;-78
2024/01/16 00:26:24;;;;;;;11.60;1.83;;;;;;;;;;5047833;28;20017;-78
2024/01/16 00:28:50;;;;;;;9.32;1.42;;;;;;;;;;5047750;28;20017;-78
2024/01/16 00:31:16;;;;;;;11.23;1.65;;;;;;;;;;5049043;28;20032;-78
2024/01/16 00:33:42;;;;;;;14.75;1.60;;;;;;;;;;5049127;28;20013;-78
2024/01/16 00:36:08;;;;;;;10.07;1.60;;;;;;;;;;5047520;28;20067;-78
2024/01/16 00:38:35;;;;;;;12.80;1.73;;;;;;;;;;5048018;28;20013;-78
2024/01/16 00:41:01;;;;;;;10.43;1.27;;;;;;;;;;5047518;28;20020;-78
2024/01/16 00:43:27;;;;;;;10.65;1.50;;;;;;;;;;5047567;28;20093;-78
2024/01/16 00:45:53;;;;;;;8.15;1.20;;;;;;;;;;5048717;28;20158;-78
2024/01/16 00:48:20;;;;;;;9.32;1.50;;;;;;;;;;5047723;28;20173;-78
2024/01/16 00:50:49;;;;;;;7.78;1.27;;;;;;;;;;5047803;28;20021;-78
2024/01/16 00:53:15;;;;;;;10.23;1.45;;;;;;;;;;5047520;28;20068;-78
2024/01/16 00:55:41;;;;;;;8.98;1.25;;;;;;;;;;5048777;28;20029;-78
2024/01/16 00:58:07;;;;;;;7.30;0.98;;;;;;;;;;5048723;28;20024;-78
2024/01/16 01:00:34;;;;;;;8.90;1.00;;;;;;;;;;5048525;28;20056;-78
2024/01/16 01:03:00;;;;;;;8.27;1.13;;;;;;;;;;5047542;28;20075;-78
2024/01/16 01:05:28;;;;;;;5.15;0.90;;;;;;;;;;5047251;28;20040;-78
2024/01/16 01:07:57;;;;;;;7.40;0.90;;;;;;;;;;5048308;28;20013;-78
2024/01/16 01:10:23;;;;;;;7.60;0.90;;;;;;;;;;5048539;28;20405;-79
2024/01/16 01:12:49;;;;;;;7.50;1.23;;;;;;;;;;5048578;28;20025;-79
2024/01/16 01:15:15;;;;;;;11.43;1.27;;;;;;;;;;5048596;28;20080;-78
2024/01/16 01:17:41;;;;;;;4.45;0.98;;;;;;;;;;5048711;28;20021;-78
2024/01/16 01:20:09;;;;;;;8.77;0.98;;;;;;;;;;5047504;28;20017;-78
2024/01/16 01:22:35;;;;;;;7.30;1.00;;;;;;;;;;5052287;28;20508;-79
2024/01/16 01:25:01;;;;;;;9.65;1.50;;;;;;;;;;5052005;28;20024;-78
2024/01/16 01:27:27;;;;;;;7.57;1.10;;;;;;;;;;5050737;28;20013;-78
2024/01/16 01:29:53;;;;;;;9.38;1.20;;;;;;;;;;5050772;28;20225;-78
2024/01/16 01:32:19;;;;;;;12.52;1.33;;;;;;;;;;5050790;28;20490;-78
2024/01/16 01:34:45;;;;;;;8.45;1.40;;;;;;;;;;5050635;28;20084;-78
2024/01/16 01:37:11;;;;;;;7.47;1.48;;;;;;;;;;5050496;28;20049;-78
2024/01/16 01:39:37;;;;;;;5.65;1.00;;;;;;;;;;5050352;28;20086;-78
2024/01/16 01:42:03;;;;;;;5.28;1.20;;;;;;;;;;5050496;28;20401;-78
2024/01/16 01:44:29;;;;;;;9.45;1.30;;;;;;;;;;5050498;28;20033;-78
2024/01/16 01:46:55;;;;;;;6.03;1.05;;;;;;;;;;5050219;28;20025;-78
2024/01/16 01:49:22;;;;;;;11.73;1.77;;;;;;;;;;5050463;28;20021;-77
2024/01/16 01:51:49;;;;;;;8.77;1.05;;;;;;;;;;5050292;28;20024;-78
2024/01/16 01:54:16;;;;;;;6.13;0.90;;;;;;;;;;5050461;28;20021;-78
2024/01/16 01:56:44;;;;;;;6.03;1.27;;;;;;;;;;5051666;28;20025;-77
2024/01/16 01:59:10;;;;;;;8.18;0.93;;;;;;;;;;5051574;28;20021;-77
2024/01/16 02:01:36;;;;;;;8.88;1.20;;;;;;;;;;5051477;28;20029;-78
2024/01/16 02:04:03;;;;;;;6.93;1.30;;;;;;;;;;5051598;28;20028;-78
2024/01/16 02:06:29;;;;;;;5.43;0.98;;;;;;;;;;5049948;28;20017;-78
2024/01/16 02:08:55;;;;;;;11.93;1.40;;;;;;;;;;5050120;28;20027;-77
2024/01/16 02:11:21;;;;;;;3.35;1.05;;;;;;;;;;5051182;28;20013;-78
2024/01/16 02:13:47;;;;;;;6.30;1.15;;;;;;;;;;5051301;28;20021;-78
2024/01/16 02:16:23;;;;;;;11.68;1.25;;;;;;;;;;5049809;28;20020;-77
2024/01/16 02:18:50;;;;;;;5.72;0.75;;;;;;;;;;5049808;28;20066;-78
2024/01/16 02:21:18;;;;;;;7.50;1.20;;;;;;;;;;5051329;28;20017;-78
2024/01/16 02:23:44;;;;;;;6.10;0.80;;;;;;;;;;5051206;28;20063;-77
2024/01/16 02:26:10;;;;;;;4.93;1.10;;;;;;;;;;5050891;28;20009;-78
2024/01/16 02:28:36;;;;;;;6.72;0.93;;;;;;;;;;5051369;28;20018;-78
2024/01/16 02:31:02;;;;;;;7.55;0.98;;;;;;;;;;5049483;28;20041;-78
2024/01/16 02:33:28;;;;;;;6.78;1.15;;;;;;;;;;5048942;28;20420;-78
2024/01/16 02:35:54;;;;;;;6.43;0.93;;;;;;;;;;5050809;28;20037;-77
2024/01/16 02:38:20;;;;;;;7.68;1.00;;;;;;;;;;5049383;28;20612;-77
2024/01/16 02:40:46;;;;;;;7.88;0.90;;;;;;;;;;5049287;28;20028;-77
2024/01/16 02:43:12;;;;;;;8.02;1.30;;;;;;;;;;5050678;28;20388;-78
2024/01/16 02:45:38;;;;;;;7.57;1.45;;;;;;;;;;5049301;28;20082;-78
2024/01/16 02:48:05;;;;;;;7.75;1.58;;;;;;;;;;5050526;28;20049;-79
2024/01/16 02:50:31;;;;;;;7.55;0.90;;;;;;;;;;5050650;28;20088;-77
2024/01/16 02:52:57;;;;;;;9.90;1.63;;;;;;;;;;5049160;28;20384;-78
2024/01/16 02:55:23;;;;;;;8.95;1.75;;;;;;;;;;5050493;28;20024;-78
2024/01/16 02:57:50;;;;;;;11.02;1.55;;;;;;;;;;5049031;28;20176;-77
2024/01/16 03:00:17;;;;;;;10.20;1.20;;;;;;;;;;5049037;28;20125;-77
2024/01/16 03:02:43;;;;;;;6.68;1.02;;;;;;;;;;5048848;28;20494;-78
2024/01/16 03:05:10;;;;;;;8.45;1.02;;;;;;;;;;5048846;28;20021;-77
2024/01/16 03:07:36;;;;;;;6.88;0.80;;;;;;;;;;5050236;28;20017;-77
2024/01/16 03:10:03;;;;;;;7.93;1.25;;;;;;;;;;5048887;28;20074;-77
2024/01/16 03:12:28;;;;;;;7.82;1.00;;;;;;;;;;5048169;28;20013;-78
2024/01/16 03:14:55;;;;;;;6.55;0.90;;;;;;;;;;5032627;28;20024;-78
2024/01/16 03:17:21;;;;;;;7.10;1.00;;;;;;;;;;5042049;28;20505;-77
2024/01/16 03:19:47;;;;;;;9.57;1.27;;;;;;;;;;5048750;28;20020;-77
2024/01/16 03:22:13;;;;;;;7.60;1.10;;;;;;;;;;5048621;28;20499;-78
2024/01/16 03:24:40;;;;;;;9.20;1.20;;;;;;;;;;5048430;28;20029;-77
2024/01/16 03:27:06;;;;;;;8.27;1.33;;;;;;;;;;5048820;28;20469;-77
2024/01/16 03:29:33;;;;;;;5.07;0.80;;;;;;;;;;5048508;28;20017;-77
2024/01/16 03:32:00;;;;;;;9.23;1.20;;;;;;;;;;5048151;28;20469;-77
2024/01/16 03:34:26;;;;;;;7.40;1.00;;;;;;;;;;5049906;28;20017;-78
2024/01/16 03:36:53;;;;;;;6.50;0.85;;;;;;;;;;5049521;28;20121;-78
2024/01/16 03:39:19;;;;;;;9.70;1.33;;;;;;;;;;5049507;28;20020;-78
2024/01/16 03:41:45;;;;;;;12.25;1.58;;;;;;;;;;5048338;28;20515;-78
2024/01/16 03:44:11;;;;;;;7.60;1.10;;;;;;;;;;5047226;28;20033;-77
2024/01/16 03:46:37;;;;;;;12.10;1.58;;;;;;;;;;5048249;28;20086;-78
2024/01/16 03:49:03;;;;;;;7.82;1.05;;;;;;;;;;5048211;28;20009;-78
2024/01/16 03:51:29;;;;;;;7.45;1.15;;;;;;;;;;5048109;28;20075;-77
2024/01/16 03:53:55;;;;;;;12.88;1.50;;;;;;;;;;5049397;28;20013;-77
2024/01/16 03:56:21;;;;;;;8.60;1.40;;;;;;;;;;5049367;28;20062;-78
2024/01/16 03:58:47;;;;;;;9.27;1.35;;;;;;;;;;5049359;28;20088;-78
2024/01/16 04:01:13;;;;;;;6.55;1.35;;;;;;;;;;5048009;28;20041;-77
2024/01/16 04:03:39;;;;;;;10.23;1.48;;;;;;;;;;5047966;28;20037;-78
2024/01/16 04:06:18;;;;;;;12.23;1.98;;;;;;;;;;5048000;28;20052;-78
2024/01/16 04:08:45;;;;;;;10.20;1.52;;;;;;;;;;5049469;28;20017;-78
2024/01/16 04:11:14;;;;;;;11.40;1.30;;;;;;;;;;5049260;28;20402;-77
2024/01/16 04:13:40;;;;;;;7.88;1.52;;;;;;;;;;5047835;28;20041;-77
2024/01/16 04:16:06;;;;;;;10.02;1.38;;;;;;;;;;5047981;28;20021;-77
2024/01/16 04:18:39;;;;;;;1.88;0.50;;;;;;;;;;5049776;28;20399;-78
2024/01/16 04:21:06;;;;;;;5.70;0.90;;;;;;;;;;5047854;28;20025;-78
2024/01/16 04:23:32;;;;;;;5.82;0.60;;;;;;;;;;5047827;28;20020;-77
2024/01/16 04:25:58;;;;;;;5.72;0.77;;;;;;;;;;5047786;28;20440;-77
2024/01/16 04:28:24;;;;;;;6.32;0.90;;;;;;;;;;5047801;28;20036;-78
2024/01/16 04:30:50;;;;;;;5.72;0.75;;;;;;;;;;5047733;28;20074;-77
2024/01/16 04:33:16;;;;;;;4.20;0.68;;;;;;;;;;5047757;28;20024;-77
2024/01/16 04:35:42;;;;;;;9.27;1.23;;;;;;;;;;5047524;28;20041;-77
2024/01/16 04:38:08;;;;;;;6.60;1.40;;;;;;;;;;5049239;28;20017;-79
2024/01/16 04:40:34;;;;;;;6.35;1.02;;;;;;;;;;5049247;28;20474;-77
2024/01/16 04:43:01;;;;;;;7.22;1.13;;;;;;;;;;5047887;28;20024;-78
2024/01/16 04:45:27;;;;;;;9.10;1.10;;;;;;;;;;5047548;28;20373;-77
2024/01/16 04:47:53;;;;;;;9.65;1.60;;;;;;;;;;5047624;28;20017;-77
2024/01/16 04:50:19;;;;;;;5.05;0.82;;;;;;;;;;5048886;28;20006;-77
2024/01/16 04:52:45;;;;;;;6.28;1.17;;;;;;;;;;5047608;28;20024;-78
2024/01/16 04:55:11;;;;;;;8.32;1.40;;;;;;;;;;5047997;28;20025;-78
2024/01/16 04:57:37;;;;;;;9.38;1.33;;;;;;;;;;5052641;28;20021;-76
2024/01/16 05:00:07;;;;;;;7.68;1.08;;;;;;;;;;5051311;28;20340;-76
2024/01/16 05:02:34;;;;;;;6.55;0.90;;;;;;;;;;5053137;28;20021;-78
2024/01/16 05:05:00;;;;;;;8.48;1.13;;;;;;;;;;5052412;28;20029;-78
2024/01/16 05:07:26;;;;;;;5.05;0.98;;;;;;;;;;5051315;28;20071;-78
2024/01/16 05:09:53;;;;;;;7.40;0.88;;;;;;;;;;5051099;28;20013;-79
2024/01/16 05:12:19;;;;;;;5.15;1.13;;;;;;;;;;5051425;28;20013;-78
2024/01/16 05:14:45;;;;;;;10.88;1.48;;;;;;;;;;5052576;28;20067;-80
2024/01/16 05:17:11;;;;;;;8.13;1.08;;;;;;;;;;5051041;28;20021;-78
2024/01/16 05:19:37;;;;;;;8.00;1.25;;;;;;;;;;5050939;28;20079;-78
2024/01/16 05:22:03;;;;;;;10.98;1.30;;;;;;;;;;5050981;28;20022;-78
2024/01/16 05:24:29;;;;;;;7.80;1.45;;;;;;;;;;5050028;28;20025;-81
2024/01/16 05:26:56;;;;;;;8.75;1.30;;;;;;;;;;5050863;28;20017;-78
2024/01/16 05:29:22;;;;;;;9.77;1.30;;;;;;;;;;5050325;28;20017;-78
2024/01/16 05:31:48;;;;;;;8.52;1.23;;;;;;;;;;5050364;28;20012;-78
2024/01/16 05:34:15;;;;;;;9.35;1.13;;;;;;;;;;5050160;28;20503;-78
2024/01/16 05:36:41;;;;;;;11.63;1.33;;;;;;;;;;5049146;28;20045;-78
2024/01/16 05:39:08;;;;;;;10.05;1.30;;;;;;;;;;5050094;28;20025;-78
2024/01/16 05:41:34;;;;;;;11.82;1.58;;;;;;;;;;5050295;28;20388;-78
2024/01/16 05:44:03;;;;;;;6.35;1.40;;;;;;;;;;5051156;28;20056;-78
2024/01/16 05:46:30;;;;;;;9.23;1.45;;;;;;;;;;5051065;28;20365;-78
2024/01/16 05:48:56;;;;;;;8.77;1.13;;;;;;;;;;5048844;28;20455;-78
2024/01/16 05:51:22;;;;;;;10.77;1.90;;;;;;;;;;5050718;28;20017;-78
2024/01/16 05:53:48;;;;;;;8.10;1.20;;;;;;;;;;5034142;28;20044;-78
2024/01/16 05:56:14;;;;;;;11.05;1.40;;;;;;;;;;5055305;28;20025;-78
2024/01/16 05:58:40;;;;;;;10.85;1.80;;;;;;;;;;5051817;28;20520;-77
2024/01/16 06:01:06;;;;;;;7.53;1.92;;;;;;;;;;5049363;28;20017;-77
2024/01/16 06:03:32;;;;;;;7.60;1.35;;;;;;;;;;5049231;28;20484;-77
2024/01/16 06:05:58;;;;;;;10.73;1.70;;;;;;;;;;5050855;28;20060;-77
2024/01/16 06:08:25;;;;;;;8.38;1.42;;;;;;;;;;5048342;28;20465;-77
2024/01/16 06:10:51;;;;;;;8.15;1.38;;;;;;;;;;5049330;28;20052;-77
2024/01/16 06:13:18;;;;;;;11.77;1.92;;;;;;;;;;5049469;28;20005;-79
2024/01/16 06:15:44;;;;;;;12.30;2.40;;;;;;;;;;5050686;28;20155;-79
2024/01/16 06:18:10;;;;;;;12.10;1.88;;;;;;;;;;5049201;28;20024;-78
2024/01/16 06:20:36;;;;;;;7.05;1.67;;;;;;;;;;5050105;28;20025;-80
2024/01/16 06:23:02;;;;;;;9.10;1.70;;;;;;;;;;5050303;28;20020;-79
2024/01/16 06:25:28;;;;;;;9.80;1.27;;;;;;;;;;5050206;28;20029;-79
2024/01/16 06:27:55;;;;;;;12.35;1.98;;;;;;;;;;5048844;28;20016;-79
2024/01/16 06:30:21;;;;;;;9.55;1.55;;;;;;;;;;5050132;28;20071;-79
2024/01/16 06:32:47;;;;;;;13.88;1.95;;;;;;;;;;5048860;28;20020;-79
2024/01/16 06:35:13;;;;;;;11.38;1.58;;;;;;;;;;5048564;28;20647;-79
2024/01/16 06:37:40;;;;;;;10.13;1.75;;;;;;;;;;5050041;28;20224;-82
2024/01/16 06:40:06;;;;;;;9.77;1.48;;;;;;;;;;5050588;28;20017;-82
2024/01/16 06:42:33;;;;;;;10.90;1.45;;;;;;;;;;5049525;28;20063;-78
2024/01/16 06:44:59;;;;;;;13.18;2.08;;;;;;;;;;5045346;28;20021;-79
2024/01/16 06:47:25;;;;;;;9.85;2.40;;;;;;;;;;5049938;28;20013;-78
2024/01/16 06:49:51;;;;;;;7.70;1.90;;;;;;;;;;5048559;28;20017;-78
2024/01/16 06:52:17;;;;;;;14.57;2.22;;;;;;;;;;5048794;28;20017;-78
2024/01/16 06:54:43;;;;;;;13.02;1.73;;;;;;;;;;5048409;28;20572;-78
2024/01/16 06:57:09;;;;;;;12.68;1.88;;;;;;;;;;5049681;28;20017;-78
2024/01/16 06:59:35;;;;;;;13.68;2.13;;;;;;;;;;5048207;28;20474;-78
2024/01/16 07:02:01;;;;;;;12.80;2.20;;;;;;;;;;5047936;28;20024;-78
2024/01/16 07:04:27;;;;;;;10.68;1.75;;;;;;;;;;5048962;28;20397;-78
2024/01/16 07:06:53;;;;;;;12.98;2.28;;;;;;;;;;5047809;28;20075;-78
2024/01/16 07:09:20;;;;;;;11.10;2.00;;;;;;;;;;5049341;28;20017;-78
2024/01/16 07:11:47;;;;;;;12.25;2.30;;;;;;;;;;5047552;28;20022;-78
2024/01/16 07:14:13;;;;;;;11.95;2.10;;;;;;;;;;5048934;28;20511;-78
2024/01/16 07:16:39;;;;;;;8.77;1.73;;;;;;;;;;5048605;28;20056;-78
2024/01/16 07:19:05;;;;;;;5.10;1.20;;;;;;;;;;5048725;28;20013;-78
2024/01/16 07:21:31;;;;;;;7.47;1.10;;;;;;;;;;5047264;28;20021;-78
2024/01/16 07:23:57;;;;;;;6.38;0.85;;;;;;;;;;5047657;28;20017;-78
2024/01/16 07:26:24;;;;;;;7.15;0.90;;;;;;;;;;5047470;28;20013;-78
2024/01/16 07:28:50;;;;;;;12.75;1.75;;;;;;;;;;5047167;28;20373;-78
2024/01/16 07:31:16;;;;;;;8.05;1.33;;;;;;;;;;5047282;28;20024;-78
2024/01/16 07:33:42;;;;;;;6.05;1.15;;;;;;;;;;5047057;28;20013;-78
2024/01/16 07:36:09;;;;;;;6.35;1.08;;;;;;;;;;5046974;28;20037;-78
2024/01/16 07:38:38;;;;;;;7.72;1.13;;;;;;;;;;5048366;28;20040;-78
2024/01/16 07:41:05;;;;;;;5.65;0.90;;;;;;;;;;5046988;28;20017;-78
2024/01/16 07:43:31;;;;;;;2.53;0.55;;;;;;;;;;5047259;28;20492;-78
2024/01/16 07:45:57;;;;;;;5.22;0.75;;;;;;;;;;5046773;28;20060;-78
2024/01/16 07:48:23;;;;;;;8.00;0.85;;;;;;;;;;5046894;28;20049;-78
2024/01/16 07:50:49;;;;;;;6.68;1.15;;;;;;;;;;5048245;28;20064;-78
2024/01/16 07:53:15;;;;;;;4.97;1.10;;;;;;;;;;5048206;28;20092;-78
2024/01/16 07:55:42;;;;;;;5.72;1.08;;;;;;;;;;5048093;28;20100;-78
2024/01/16 07:58:08;;;;;;;6.78;0.85;;;;;;;;;;5047061;28;20461;-78
2024/01/16 08:00:34;;;;;;;5.72;1.20;;;;;;;;;;5046773;28;20017;-78
2024/01/16 08:03:00;;;;;;;6.53;1.38;;;;;;;;;;5047962;28;20017;-79
2024/01/16 08:05:27;;;;;;;4.18;0.90;;;;;;;;;;5046555;28;20363;-78
2024/01/16 08:07:53;;;;;;;11.25;1.05;;;;;;;;;;5048092;28;20074;-78
2024/01/16 08:10:19;;;;;;;5.80;0.80;;;;;;;;;;5048139;28;20461;-78
2024/01/16 08:12:46;;;;;;;1.75;0.50;;;;;;;;;;5046714;28;20534;-78
2024/01/16 08:15:12;;;;;;;6.25;0.73;;;;;;;;;;5047004;28;20033;-78
2024/01/16 08:17:39;;;;;;;3.40;0.65;;;;;;;;;;5048292;28;20477;-78
2024/01/16 08:20:05;;;;;;;4.20;0.80;;;;;;;;;;5046669;28;20485;-78
2024/01/16 08:22:31;;;;;;;2.33;0.82;;;;;;;;;;5046769;28;20055;-78
2024/01/16 08:24:57;;;;;;;5.78;0.85;;;;;;;;;;5047780;28;20021;-78
2024/01/16 08:27:23;;;;;;;5.63;0.60;;;;;;;;;;5047944;28;20465;-78
2024/01/16 08:29:49;;;;;;;3.75;0.70;;;;;;;;;;5046619;28;20028;-78
2024/01/16 08:32:17;;;;;;;3.63;0.70;;;;;;;;;;5050596;28;20020;-78
2024/01/16 08:34:43;;;;;;;5.47;0.70;;;;;;;;;;5050448;28;20481;-78
2024/01/16 08:37:09;;;;;;;4.70;0.70;;;;;;;;;;5051652;28;20132;-78
2024/01/16 08:39:36;;;;;;;6.57;0.85;;;;;;;;;;5051653;28;20023;-78
2024/01/16 08:42:03;;;;;;;6.93;0.80;;;;;;;;;;5050648;28;20473;-78
2024/01/16 08:44:29;;;;;;;3.95;0.80;;;;;;;;;;5051758;28;20049;-78
2024/01/16 08:46:55;;;;;;;5.95;0.80;;;;;;;;;;5050233;28;20493;-78
2024/01/16 08:49:21;;;;;;;3.67;0.95;;;;;;;;;;5051731;28;20631;-78
2024/01/16 08:51:47;;;;;;;5.50;1.05;;;;;;;;;;5050354;28;20021;-78
2024/01/16 08:54:13;;;;;;;4.70;0.85;;;;;;;;;;5051789;28;20016;-78
2024/01/16 08:56:39;;;;;;;3.88;1.13;;;;;;;;;;5051583;28;20020;-78
2024/01/16 08:59:05;;;;;;;4.22;0.60;;;;;;;;;;5051916;28;20013;-78
2024/01/16 09:01:31;;;;;;;4.97;0.73;;;;;;;;;;5051469;28;20024;-77
2024/01/16 09:03:57;;;;;;;5.28;0.90;;;;;;;;;;5050092;28;20333;-78
2024/01/16 09:06:23;;;;;;;6.00;0.82;;;;;;;;;;5049939;28;20472;-77
2024/01/16 09:08:49;;;;;;;4.10;0.98;;;;;;;;;;5051544;28;20009;-78
2024/01/16 09:11:15;;;;;;;4.32;0.85;;;;;;;;;;5051245;28;20035;-78
2024/01/16 09:13:41;;;;;;;7.28;1.42;;;;;;;;;;5050099;28;20447;-79
2024/01/16 09:16:07;;;;;;;4.47;0.88;;;;;;;;;;5050995;28;20028;-78
2024/01/16 09:18:33;;;;;;;3.45;0.73;;;;;;;;;;5049897;28;20021;-78
2024/01/16 09:20:59;;;;;;;2.97;0.68;;;;;;;;;;5049849;28;20013;-78
2024/01/16 09:23:25;;;;;;;4.57;0.80;;;;;;;;;;5051088;28;20044;-77
2024/01/16 09:25:51;;;;;;;3.75;0.75;;;;;;;;;;5050940;28;20036;-78
2024/01/16 09:28:17;;;;;;;7.15;0.95;;;;;;;;;;5049866;28;20070;-78
2024/01/16 09:30:43;;;;;;;4.25;1.48;;;;;;;;;;5049842;28;20377;-78
2024/01/16 09:33:10;;;;;;;2.85;1.00;;;;;;;;;;5050754;28;20028;-77
2024/01/16 09:35:36;;;;;;;6.00;1.27;;;;;;;;;;5050689;28;20091;-77
2024/01/16 09:38:03;;;;;;;8.65;1.13;;;;;;;;;;5051045;28;20025;-77
2024/01/16 09:40:30;;;;;;;5.82;1.00;;;;;;;;;;5050706;28;20020;-78
2024/01/16 09:42:57;;;;;;;7.80;0.95;;;;;;;;;;5049595;28;20025;-77
2024/01/16 09:45:24;;;;;;;7.53;1.05;;;;;;;;;;5050480;28;20060;-77
2024/01/16 09:47:51;;;;;;;5.15;0.93;;;;;;;;;;5050443;28;20056;-77
2024/01/16 09:50:17;;;;;;;4.68;1.38;;;;;;;;;;5040281;28;20024;-77
2024/01/16 09:52:44;;;;;;;6.05;1.45;;;;;;;;;;5042009;28;20017;-77
2024/01/16 09:55:10;;;;;;;9.40;1.60;;;;;;;;;;5051075;28;20562;-77
2024/01/16 09:57:40;;;;;;;9.63;1.70;;;;;;;;;;5051079;28;20022;-77
2024/01/16 10:00:06;;;;;;;13.07;2.17;;;;;;;;;;5049739;28;20056;-77
2024/01/16 10:02:33;;;;;;;7.95;1.98;;;;;;;;;;5047214;28;20040;-77
2024/01/16 10:04:59;;;;;;;8.70;1.83;;;;;;;;;;5049157;28;20021;-77
2024/01/16 10:07:27;;;;;;;10.13;1.83;;;;;;;;;;5049785;28;20009;-77
2024/01/16 10:09:56;;;;;;;11.32;2.30;;;;;;;;;;5050315;28;20058;-77
2024/01/16 10:12:22;;;;;;;7.47;1.92;;;;;;;;;;5046417;28;20013;-77
2024/01/16 10:14:50;;;;;;;7.97;1.60;;;;;;;;;;5049098;28;20017;-77
2024/01/16 10:17:17;;;;;;;8.60;1.27;;;;;;;;;;5051377;28;20100;-77
2024/01/16 10:19:50;;;;;;;7.10;1.60;;;;;;;;;;5047020;28;20016;-78
2024/01/16 10:22:24;;;;;;;5.70;1.40;;;;;;;;;;5050646;28;20041;-77
2024/01/16 10:24:50;;;;;;;7.45;1.50;;;;;;;;;;5049851;28;20112;-78
2024/01/16 10:27:18;;;;;;;3.42;1.10;;;;;;;;;;5047415;28;20047;-77
2024/01/16 10:29:59;;;;;;;3.60;1.13;;;;;;;;;;5049759;28;20518;-77
2024/01/16 10:32:35;;;;;;;4.53;1.10;;;;;;;;;;5049982;28;20017;-77
2024/01/16 10:35:11;;;;;;;5.20;1.20;;;;;;;;;;5047573;28;20458;-78
2024/01/16 10:37:44;;;;;;;5.50;1.80;;;;;;;;;;5047994;28;20037;-78
2024/01/16 10:40:11;;;;;;;5.82;1.02;;;;;;;;;;5048163;28;20025;-78
2024/01/16 10:42:38;;;;;;;6.47;1.40;;;;;;;;;;5048126;28;20020;-78
2024/01/16 10:45:05;;;;;;;5.40;1.25;;;;;;;;;;5048070;28;20025;-78
2024/01/16 10:47:34;;;;;;;10.40;1.60;;;;;;;;;;5045777;28;20014;-77
2024/01/16 10:50:00;;;;;;;10.23;1.73;;;;;;;;;;5033605;28;20009;-78
2024/01/16 10:52:28;;;;;;;7.03;1.90;;;;;;;;;;5041553;28;20017;-78
2024/01/16 10:54:57;;;;;;;7.97;1.67;;;;;;;;;;5035026;28;20029;-78
2024/01/16 10:57:25;;;;;;;11.15;1.98;;;;;;;;;;5028784;28;20013;-77
2024/01/16 10:59:55;;;;;;;9.00;1.85;;;;;;;;;;5047841;28;20081;-77
2024/01/16 11:02:25;;;;;;;11.13;2.35;;;;;;;;;;5048736;28;20017;-77
2024/01/16 11:04:54;;;;;;;8.43;1.73;;;;;;;;;;5048239;28;20032;-77
2024/01/16 11:07:22;;;;;;;6.25;1.70;;;;;;;;;;5047622;28;20009;-78
2024/01/16 11:09:49;;;;;;;5.68;1.55;;;;;;;;;;5046693;28;20453;-77
2024/01/16 11:12:17;;;;;;;8.77;1.83;;;;;;;;;;5048863;28;20025;-77
2024/01/16 11:14:45;;;;;;;8.13;2.10;;;;;;;;;;5048009;28;20028;-77
2024/01/16 11:17:17;;;;;;;10.98;1.90;;;;;;;;;;5047012;28;20484;-77
2024/01/16 11:19:43;;;;;;;7.25;1.70;;;;;;;;;;5047970;28;20013;-77
2024/01/16 11:22:10;;;;;;;6.70;1.80;;;;;;;;;;5047359;28;20005;-77
2024/01/16 11:24:36;;;;;;;6.25;2.20;;;;;;;;;;5048878;28;20082;-77
2024/01/16 11:27:02;;;;;;;8.40;2.10;;;;;;;;;;5052839;28;20021;-78
2024/01/16 11:29:28;;;;;;;8.30;1.83;;;;;;;;;;5054947;28;20151;-77
2024/01/16 11:31:55;;;;;;;8.93;1.52;;;;;;;;;;5052199;28;20527;-77
2024/01/16 11:34:39;;;;;;;7.68;1.73;;;;;;;;;;5049427;28;20021;-77
2024/01/16 11:37:07;;;;;;;8.23;1.67;;;;;;;;;;5048286;28;20032;-77
2024/01/16 11:39:33;;;;;;;5.70;1.60;;;;;;;;;;5045446;28;20025;-78
2024/01/16 11:42:02;;;;;;;8.65;2.00;;;;;;;;;;5050291;28;20100;-78
2024/01/16 11:44:43;;;;;;;8.18;1.95;;;;;;;;;;5049606;28;20028;-78
2024/01/16 11:47:10;;;;;;;6.80;1.80;;;;;;;;;;5048634;28;20025;-82
2024/01/16 11:49:40;;;;;;;10.43;2.08;;;;;;;;;;5048606;28;20013;-79
2024/01/16 11:52:06;;;;;;;7.07;1.75;;;;;;;;;;5049706;28;20370;-77
2024/01/16 11:54:34;;;;;;;4.93;1.70;;;;;;;;;;5044873;28;20032;-77
2024/01/16 11:57:19;;;;;;;8.45;2.25;;;;;;;;;;5050257;28;20102;-78
2024/01/16 11:59:48;;;;;;;5.00;2.05;;;;;;;;;;5048192;28;20233;-78
2024/01/16 12:02:27;;;;;;;8.27;2.97;;;;;;;;;;5048360;28;20021;-78
2024/01/16 12:04:58;;;;;;;7.10;3.40;;;;;;;;;;5047507;28;20021;-77
2024/01/16 12:07:24;;;;;;;15.10;3.95;;;;;;;;;;5048159;28;20032;-78
2024/01/16 12:09:50;;;;;;;8.20;3.05;;;;;;;;;;5047672;28;20378;-78
2024/01/16 12:12:18;;;;;;;11.32;3.47;;;;;;;;;;5048108;28;20096;-78
2024/01/16 12:14:53;;;;;;;11.35;3.90;;;;;;;;;;5049101;28;20381;-78
2024/01/16 12:17:20;;;;;;;9.23;3.53;;;;;;;;;;5049635;28;20043;-78
2024/01/16 12:19:46;;;;;;;10.30;3.30;;;;;;;;;;5047990;28;20017;-78
2024/01/16 12:22:16;;;;;;;9.88;3.50;;;;;;;;;;5049316;28;20023;-78
2024/01/16 12:24:42;;;;;;;9.35;3.53;;;;;;;;;;5048815;28;20021;-78
2024/01/16 12:27:08;;;;;;;10.57;3.28;;;;;;;;;;5059418;28;20428;-78
2024/01/16 12:29:35;;;;;;;8.15;3.22;;;;;;;;;;5060802;28;20374;-78
2024/01/16 12:32:08;;;;;;;11.05;3.47;;;;;;;;;;5049294;28;20420;-78
2024/01/16 12:34:35;;;;;;;7.20;3.10;;;;;;;;;;5047448;28;20029;-78
2024/01/16 12:37:07;;;;;;;8.32;3.33;;;;;;;;;;5047597;28;20048;-78
2024/01/16 12:39:35;;;;;;;11.88;3.60;;;;;;;;;;5048600;28;20539;-78
2024/01/16 12:42:01;;;;;;;6.15;3.00;;;;;;;;;;5049112;28;20099;-78
2024/01/16 12:44:28;;;;;;;12.90;3.17;;;;;;;;;;5047216;28;20029;-79
2024/01/16 12:46:55;;;;;;;7.05;2.80;;;;;;;;;;5047789;28;20009;-79
2024/01/16 12:49:21;;;;;;;8.45;3.53;;;;;;;;;;5048786;28;20092;-79
2024/01/16 12:51:47;;;;;;;7.82;3.22;;;;;;;;;;5047977;28;20328;-78
2024/01/16 12:54:14;;;;;;;11.63;3.17;;;;;;;;;;5047300;28;20049;-79
2024/01/16 12:56:40;;;;;;;12.18;4.07;;;;;;;;;;5047938;28;20023;-80
2024/01/16 12:59:11;;;;;;;10.48;3.35;;;;;;;;;;5047504;28;20485;-83
2024/01/16 13:01:41;;;;;;;8.57;2.70;;;;;;;;;;5047134;28;20120;-78
2024/01/16 13:04:07;;;;;;;7.70;3.30;;;;;;;;;;5030861;28;20021;-79
2024/01/16 13:06:34;;;;;;;5.57;2.67;;;;;;;;;;5037784;28;20528;-78
2024/01/16 13:09:10;;;;;;;7.97;2.72;;;;;;;;;;5028335;28;20409;-78
2024/01/16 13:11:55;;;;;;;9.40;2.75;;;;;;;;;;5043443;28;20075;-78
2024/01/16 13:14:22;;;;;;;7.82;2.78;;;;;;;;;;5048487;28;20010;-79
2024/01/16 13:16:57;;;;;;;4.82;2.05;;;;;;;;;;5049738;28;20025;-79
2024/01/16 13:19:23;;;;;;;6.38;2.08;;;;;;;;;;5052109;28;20025;-79
2024/01/16 13:21:50;;;;;;;12.30;2.00;;;;;;;;;;5051191;28;20465;-79
2024/01/16 13:24:17;;;;;;;8.85;1.52;;;;;;;;;;5047755;28;20075;-79
2024/01/16 13:26:43;;;;;;;4.88;1.20;;;;;;;;;;5050448;28;20108;-78
2024/01/16 13:29:09;;;;;;;8.93;1.27;;;;;;;;;;5050499;28;20040;-79
2024/01/16 13:31:35;;;;;;;3.70;0.90;;;;;;;;;;5051552;28;20052;-79
2024/01/16 13:34:01;;;;;;;9.55;2.03;;;;;;;;;;5050766;28;20380;-79
2024/01/16 13:36:27;;;;;;;7.90;1.80;;;;;;;;;;5051500;28;20048;-78
2024/01/16 13:38:54;;;;;;;5.88;1.67;;;;;;;;;;5049447;28;20017;-79
2024/01/16 13:41:21;;;;;;;5.47;1.50;;;;;;;;;;5051641;28;20016;-78
2024/01/16 13:43:49;;;;;;;9.63;1.88;;;;;;;;;;5050301;28;20068;-79
2024/01/16 13:46:17;;;;;;;6.57;1.70;;;;;;;;;;5050233;28;20497;-79
2024/01/16 13:48:43;;;;;;;9.75;1.85;;;;;;;;;;5050540;28;20021;-79
2024/01/16 13:51:10;;;;;;;6.93;1.60;;;;;;;;;;5050102;28;20074;-79
2024/01/16 13:53:36;;;;;;;8.38;1.70;;;;;;;;;;5031955;28;20378;-79
2024/01/16 13:56:02;;;;;;;7.85;1.75;;;;;;;;;;5038010;28;20016;-79
2024/01/16 13:58:28;;;;;;;6.65;1.55;;;;;;;;;;5050309;28;20044;-79
2024/01/16 14:00:54;;;;;;;5.82;1.35;;;;;;;;;;5051256;28;20017;-79
2024/01/16 14:03:20;;;;;;;7.68;1.30;;;;;;;;;;5049688;28;20359;-79
2024/01/16 14:05:47;;;;;;;5.20;1.33;;;;;;;;;;5050679;28;20056;-79
2024/01/16 14:08:14;;;;;;;3.95;1.38;;;;;;;;;;5048874;28;20108;-79
2024/01/16 14:10:40;;;;;;;4.72;1.40;;;;;;;;;;5051012;28;20084;-79
2024/01/16 14:13:06;;;;;;;7.28;1.60;;;;;;;;;;5051053;28;20021;-79
2024/01/16 14:15:32;;;;;;;5.57;1.75;;;;;;;;;;5049520;28;20394;-80
2024/01/16 14:17:59;;;;;;;7.25;2.05;;;;;;;;;;5049055;28;20014;-79
2024/01/16 14:20:26;;;;;;;4.10;1.40;;;;;;;;;;5050399;28;20099;-80
2024/01/16 14:22:53;;;;;;;6.30;1.27;;;;;;;;;;5048878;28;20465;-80
2024/01/16 14:25:19;;;;;;;4.57;1.20;;;;;;;;;;5049175;28;20063;-80
2024/01/16 14:27:46;;;;;;;5.30;0.98;;;;;;;;;;5049545;28;20104;-79
2024/01/16 14:30:16;;;;;;;3.90;1.20;;;;;;;;;;5049013;28;20017;-80
2024/01/16 14:32:45;;;;;;;4.15;0.90;;;;;;;;;;5048795;28;20020;-80
2024/01/16 14:35:14;;;;;;;5.78;1.65;;;;;;;;;;5048742;28;20036;-79
2024/01/16 14:37:40;;;;;;;7.78;1.88;;;;;;;;;;5048498;28;20108;-80
2024/01/16 14:40:12;;;;;;;8.95;1.77;;;;;;;;;;5048587;28;20017;-80